Time;durP1;ratioP1;P1;durP2;ratioP2;P2;SDS_P1;SDS_P2;PMS_P1;PMS_P2;Temp;Humidity;BMP_temperature;BMP_pressure;BME280_temperature;BME280_humidity;BME280_pressure;Samples;Min_cycle;Max_cycle;Signal;HPM_P1;HPM_P2
2022/04/22 00:00:07;;;;;;;10.32;6.50;;;15.90;59.10;;;;;;5088754;28;20044;-60
2022/04/22 00:02:33;;;;;;;13.20;6.68;;;15.80;59.00;;;;;;5066383;28;20043;-60
2022/04/22 00:04:59;;;;;;;8.30;6.40;;;15.80;59.10;;;;;;5086578;28;20176;-59
2022/04/22 00:07:24;;;;;;;10.23;6.18;;;15.70;59.10;;;;;;5078759;28;20055;-60
2022/04/22 00:09:49;;;;;;;10.43;6.30;;;15.80;59.20;;;;;;5080272;28;20348;-61
2022/04/22 00:12:15;;;;;;;11.25;6.60;;;15.70;59.30;;;;;;5086028;28;20432;-60
2022/04/22 00:14:41;;;;;;;12.38;7.10;;;15.70;59.30;;;;;;5078038;28;20194;-60
2022/04/22 00:17:06;;;;;;;8.57;7.35;;;15.70;59.30;;;;;;5081347;28;20032;-60
2022/04/22 00:19:32;;;;;;;11.43;6.57;;;15.70;59.30;;;;;;5066052;28;20487;-60
2022/04/22 00:21:57;;;;;;;8.07;6.50;;;15.60;59.40;;;;;;5087293;28;20031;-60
2022/04/22 00:24:23;;;;;;;8.10;6.28;;;15.60;59.40;;;;;;5068098;28;20085;-60
2022/04/22 00:26:48;;;;;;;10.52;6.35;;;15.60;59.50;;;;;;5067469;28;20016;-59
2022/04/22 00:29:14;;;;;;;9.27;6.32;;;15.50;59.60;;;;;;5086354;28;20024;-59
2022/04/22 00:31:39;;;;;;;11.60;6.70;;;15.50;59.70;;;;;;5045035;28;20468;-59
2022/04/22 00:34:05;;;;;;;10.23;6.55;;;15.50;59.80;;;;;;5040128;28;20036;-60
2022/04/22 00:36:30;;;;;;;9.95;6.40;;;15.40;59.80;;;;;;5085192;28;20024;-59
2022/04/22 00:38:56;;;;;;;16.98;6.70;;;15.40;59.80;;;;;;5063654;28;20581;-60
2022/04/22 00:41:22;;;;;;;10.25;6.20;;;15.40;59.80;;;;;;5080418;28;20024;-60
2022/04/22 00:43:50;;;;;;;12.38;5.95;;;15.40;59.90;;;;;;5079255;28;20043;-60
2022/04/22 00:46:15;;;;;;;12.95;7.05;;;15.40;60.00;;;;;;5066617;28;20028;-59
2022/04/22 00:48:41;;;;;;;10.20;6.53;;;15.30;60.00;;;;;;5056144;28;20027;-60
2022/04/22 00:51:07;;;;;;;11.88;6.93;;;15.30;60.00;;;;;;5069136;28;20429;-60
2022/04/22 00:53:36;;;;;;;14.10;7.50;;;15.30;60.10;;;;;;5083512;28;20123;-60
2022/04/22 00:56:03;;;;;;;14.73;7.38;;;15.30;60.20;;;;;;5066518;28;20090;-60
2022/04/22 00:58:28;;;;;;;7.15;6.18;;;15.20;60.30;;;;;;5069993;28;20047;-60
2022/04/22 01:00:54;;;;;;;12.75;6.55;;;15.20;60.40;;;;;;5067009;28;20032;-60
2022/04/22 01:03:19;;;;;;;8.40;6.10;;;15.20;60.40;;;;;;5062984;28;20024;-60
2022/04/22 01:11:13;;;;;;;12.57;6.65;;;15.10;60.50;;;;;;5089095;28;20530;-60
2022/04/22 01:13:38;;;;;;;10.80;6.07;;;15.10;60.60;;;;;;5073005;28;20055;-59
2022/04/22 01:16:04;;;;;;;10.90;6.88;;;15.10;60.60;;;;;;5086015;28;20110;-59
2022/04/22 01:18:30;;;;;;;9.40;6.13;;;15.10;60.80;;;;;;5082333;28;20040;-59
2022/04/22 01:21:00;;;;;;;7.95;6.47;;;15.00;60.70;;;;;;5093955;28;20115;-60
2022/04/22 01:23:25;;;;;;;8.77;6.13;;;15.00;60.80;;;;;;5085590;28;20476;-59
2022/04/22 01:25:53;;;;;;;9.10;6.18;;;15.00;60.90;;;;;;5072499;28;20036;-59
2022/04/22 01:28:19;;;;;;;6.30;5.70;;;15.00;61.00;;;;;;5076550;28;20434;-60
2022/04/22 01:30:44;;;;;;;13.18;5.88;;;15.00;61.10;;;;;;5067187;28;20038;-60
2022/04/22 01:33:10;;;;;;;6.75;5.60;;;14.90;61.10;;;;;;5072246;28;20173;-60
2022/04/22 01:35:35;;;;;;;8.50;5.57;;;14.90;61.20;;;;;;5090201;28;20107;-60
2022/04/22 01:38:01;;;;;;;6.70;5.55;;;14.90;62.00;;;;;;5086661;28;20032;-59
2022/04/22 01:40:26;;;;;;;7.88;6.00;;;14.80;61.40;;;;;;5088850;28;20108;-60
2022/04/22 01:42:52;;;;;;;6.82;5.82;;;14.80;61.40;;;;;;5067183;28;20100;-59
2022/04/22 01:45:17;;;;;;;11.18;6.82;;;14.80;61.40;;;;;;5084756;28;20522;-60
2022/04/22 01:47:43;;;;;;;7.22;6.53;;;14.80;61.50;;;;;;5082491;28;20020;-60
2022/04/22 01:50:09;;;;;;;10.63;6.80;;;14.70;61.80;;;;;;5095774;28;20027;-59
2022/04/22 01:52:37;;;;;;;7.18;6.20;;;14.70;62.00;;;;;;5080787;28;20020;-60
2022/04/22 01:55:03;;;;;;;8.00;7.20;;;14.60;61.90;;;;;;5086579;28;20472;-60
2022/04/22 01:57:28;;;;;;;9.57;7.40;;;14.60;62.00;;;;;;5072977;28;20032;-60
2022/04/22 01:59:55;;;;;;;8.88;7.38;;;14.60;62.00;;;;;;5084327;28;20507;-60
2022/04/22 02:02:20;;;;;;;10.70;6.72;;;14.60;62.00;;;;;;5086936;28;20028;-60
2022/04/22 02:04:47;;;;;;;9.10;7.28;;;14.60;62.70;;;;;;5084616;28;20051;-60
2022/04/22 02:07:13;;;;;;;8.20;7.40;;;14.50;62.10;;;;;;5061385;28;20114;-60
2022/04/22 02:09:38;;;;;;;7.88;6.78;;;14.50;62.10;;;;;;5093187;28;20024;-60
2022/04/22 02:12:05;;;;;;;10.45;7.32;;;14.50;62.20;;;;;;5088035;28;20373;-60
2022/04/22 02:14:30;;;;;;;9.65;6.97;;;14.50;62.20;;;;;;5064916;28;20595;-60
2022/04/22 02:16:56;;;;;;;12.93;7.65;;;14.50;62.30;;;;;;5080966;28;20032;-60
2022/04/22 02:19:21;;;;;;;8.27;7.40;;;14.50;62.40;;;;;;5089025;28;20110;-60
2022/04/22 02:21:47;;;;;;;9.93;7.03;;;14.40;62.50;;;;;;5085419;28;20103;-60
2022/04/22 02:24:12;;;;;;;8.60;7.05;;;14.40;62.50;;;;;;5083010;28;20460;-60
2022/04/22 02:29:22;;;;;;;8.40;6.90;;;14.40;62.50;;;;;;5079880;28;20562;-60
2022/04/22 02:31:52;;;;;;;8.50;6.72;;;14.40;62.50;;;;;;5090121;28;20056;-60
2022/04/22 02:34:19;;;;;;;7.97;6.18;;;14.40;62.60;;;;;;5073273;28;20024;-60
2022/04/22 02:36:45;;;;;;;7.80;6.05;;;14.30;62.70;;;;;;5076289;28;20613;-60
2022/04/22 02:39:10;;;;;;;6.78;5.97;;;14.30;62.80;;;;;;5048159;28;20039;-60
2022/04/22 02:47:04;;;;;;;7.45;5.60;;;14.30;62.90;;;;;;5078327;28;20449;-60
2022/04/22 02:49:30;;;;;;;12.60;7.03;;;14.30;63.00;;;;;;5058232;28;20107;-60
2022/04/22 02:51:55;;;;;;;10.38;7.05;;;14.20;62.90;;;;;;5072697;28;20221;-59
2022/04/22 02:54:21;;;;;;;8.02;6.30;;;14.20;63.00;;;;;;5068914;28;20395;-60
2022/04/22 02:56:47;;;;;;;9.55;5.90;;;14.20;63.00;;;;;;5086903;28;20036;-61
2022/04/22 02:59:12;;;;;;;12.55;6.15;;;14.20;63.10;;;;;;5067781;28;20094;-60
2022/04/22 03:01:38;;;;;;;8.77;6.20;;;14.20;63.10;;;;;;5080498;28;20115;-60
2022/04/22 03:04:04;;;;;;;7.72;6.25;;;14.10;63.20;;;;;;5070327;28;20432;-60
2022/04/22 03:06:29;;;;;;;7.18;6.13;;;14.10;63.30;;;;;;5060969;28;20134;-60
2022/04/22 03:08:55;;;;;;;7.57;6.57;;;14.10;63.40;;;;;;5087981;28;20095;-59
2022/04/22 03:11:21;;;;;;;7.68;5.75;;;14.00;63.40;;;;;;5087942;28;20094;-60
2022/04/22 03:13:49;;;;;;;6.20;5.30;;;14.00;63.60;;;;;;5078928;28;20012;-60
2022/04/22 03:16:16;;;;;;;9.05;5.47;;;14.00;63.70;;;;;;5089021;28;20165;-60
2022/04/22 03:18:41;;;;;;;8.23;6.15;;;14.00;63.70;;;;;;5065983;28;20031;-59
2022/04/22 03:21:08;;;;;;;9.02;5.68;;;14.00;63.80;;;;;;5086833;28;20032;-60
2022/04/22 03:23:34;;;;;;;7.88;5.30;;;13.90;63.90;;;;;;5090018;28;20051;-60
2022/04/22 03:25:59;;;;;;;8.02;5.43;;;13.90;64.00;;;;;;5088359;28;20425;-60
2022/04/22 03:28:26;;;;;;;11.60;5.60;;;13.90;64.10;;;;;;5059079;28;20054;-60
2022/04/22 03:30:51;;;;;;;6.72;5.82;;;13.90;64.10;;;;;;5069209;28;20390;-60
2022/04/22 03:33:17;;;;;;;7.15;5.45;;;13.80;64.10;;;;;;5071992;28;20040;-59
2022/04/22 03:35:44;;;;;;;7.47;6.03;;;13.80;64.20;;;;;;5069065;28;20035;-59
2022/04/22 03:38:11;;;;;;;9.23;6.22;;;13.80;64.20;;;;;;5090383;28;20209;-60
2022/04/22 03:40:36;;;;;;;5.95;5.38;;;13.80;64.30;;;;;;5067711;28;20031;-60
2022/04/22 03:43:03;;;;;;;6.85;4.50;;;13.80;64.30;;;;;;5071717;28;20028;-59
2022/04/22 03:45:28;;;;;;;9.05;5.22;;;13.70;64.30;;;;;;5068996;28;20244;-59
2022/04/22 03:47:58;;;;;;;6.70;5.50;;;13.70;64.30;;;;;;5061392;28;20588;-59
2022/04/22 03:50:24;;;;;;;5.82;5.05;;;13.70;64.40;;;;;;5090918;28;20008;-60
2022/04/22 03:52:50;;;;;;;6.65;4.90;;;13.70;64.40;;;;;;5080164;28;20028;-59
2022/04/22 03:55:15;;;;;;;7.50;4.93;;;13.70;64.40;;;;;;5073384;28;20051;-59
2022/04/22 04:00:25;;;;;;;6.88;5.07;;;13.60;64.50;;;;;;5084034;28;20561;-60
2022/04/22 04:02:51;;;;;;;8.93;5.13;;;13.60;64.50;;;;;;5090668;28;20068;-60
2022/04/22 04:05:16;;;;;;;5.50;4.95;;;13.60;64.60;;;;;;5082283;28;20049;-60
2022/04/22 04:07:42;;;;;;;4.82;4.40;;;13.50;64.70;;;;;;5080877;28;20041;-60
2022/04/22 04:18:21;;;;;;;7.28;5.18;;;13.40;65.00;;;;;;5084497;28;20498;-59
2022/04/22 04:23:30;;;;;;;4.82;4.30;;;13.40;65.20;;;;;;5073074;28;20047;-60
2022/04/22 04:25:56;;;;;;;6.13;4.80;;;13.40;65.20;;;;;;5087924;28;20044;-59
2022/04/22 04:28:23;;;;;;;39.53;9.00;;;13.40;65.40;;;;;;5079598;28;20175;-60
2022/04/22 04:30:48;;;;;;;46.63;7.78;;;13.30;65.40;;;;;;5065319;28;20383;-60
2022/04/22 04:33:14;;;;;;;31.58;6.82;;;13.30;65.50;;;;;;5086206;28;20051;-60
2022/04/22 04:35:40;;;;;;;28.75;6.55;;;13.30;65.60;;;;;;5085049;28;20061;-61
2022/04/22 04:38:06;;;;;;;33.58;6.88;;;13.20;65.60;;;;;;5065866;28;20036;-60
2022/04/22 04:40:32;;;;;;;34.83;6.63;;;13.20;65.80;;;;;;5085715;28;20047;-60
2022/04/22 04:42:58;;;;;;;15.50;5.80;;;13.20;65.80;;;;;;5086474;28;20060;-60
2022/04/22 04:45:23;;;;;;;18.77;6.05;;;13.20;65.90;;;;;;5066177;28;20186;-60
2022/04/22 04:47:49;;;;;;;17.10;5.93;;;13.20;66.00;;;;;;5066148;28;20025;-60
2022/04/22 04:50:14;;;;;;;14.30;5.93;;;13.10;65.90;;;;;;5087825;28;20035;-60
2022/04/22 04:52:40;;;;;;;18.17;6.13;;;13.20;66.00;;;;;;5065841;28;20048;-60
2022/04/22 04:55:07;;;;;;;19.90;6.10;;;13.20;66.10;;;;;;5063293;28;20031;-59
2022/04/22 04:57:33;;;;;;;11.60;5.60;;;13.10;66.00;;;;;;5046633;28;20020;-60
2022/04/22 04:59:58;;;;;;;18.92;5.70;;;13.20;66.00;;;;;;5066614;28;20032;-60
2022/04/22 05:02:24;;;;;;;22.00;6.22;;;13.10;66.00;;;;;;5077610;28;20040;-59
2022/04/22 05:04:49;;;;;;;11.50;5.65;;;13.10;66.10;;;;;;5069505;28;20399;-59
2022/04/22 05:07:15;;;;;;;13.18;4.97;;;13.20;66.20;;;;;;5069213;28;20495;-60
2022/04/22 05:09:40;;;;;;;12.57;5.97;;;13.20;66.20;;;;;;5080264;28;21120;-59
2022/04/22 05:12:06;;;;;;;12.43;5.55;;;13.10;66.20;;;;;;5086302;28;20408;-60
2022/04/22 05:14:32;;;;;;;13.63;5.63;;;13.10;66.20;;;;;;5090791;28;20112;-60
2022/04/22 05:16:57;;;;;;;17.27;5.78;;;13.10;66.30;;;;;;5083337;28;20028;-60
2022/04/22 05:19:23;;;;;;;17.70;5.72;;;13.10;66.40;;;;;;5082006;28;20041;-60
2022/04/22 05:21:49;;;;;;;22.48;5.20;;;13.10;66.60;;;;;;5060579;28;20045;-60
2022/04/22 05:24:15;;;;;;;21.90;5.85;;;13.00;66.40;;;;;;5071571;28;20702;-60
2022/04/22 05:26:40;;;;;;;11.25;5.60;;;13.10;66.60;;;;;;5085314;28;20024;-59
2022/04/22 05:32:36;;;;;;;11.50;5.70;;;13.10;66.90;;;;;;5065536;28;20089;-59
2022/04/22 05:34:35;;;;;;;8.85;5.30;;;13.00;67.20;;;;;;5087557;28;20058;-59
2022/04/22 05:37:01;;;;;;;10.07;5.13;;;13.00;67.20;;;;;;5086996;28;20056;-60
2022/04/22 05:39:26;;;;;;;12.40;6.00;;;13.00;67.30;;;;;;5081774;28;20649;-60
2022/04/22 05:41:52;;;;;;;12.57;5.35;;;13.00;67.40;;;;;;5086835;28;20484;-59
2022/04/22 05:44:17;;;;;;;14.27;5.88;;;13.00;67.40;;;;;;5069807;28;20073;-59
2022/04/22 05:46:43;;;;;;;10.40;5.53;;;13.00;67.70;;;;;;5088920;28;20077;-60
2022/04/22 05:49:08;;;;;;;7.55;5.38;;;13.00;67.70;;;;;;5088977;28;20195;-60
2022/04/22 05:51:34;;;;;;;10.02;5.57;;;13.00;67.70;;;;;;5091215;28;20107;-60
2022/04/22 05:53:59;;;;;;;11.60;5.78;;;13.00;67.80;;;;;;5085727;28;20020;-60
2022/04/22 05:56:25;;;;;;;12.02;5.47;;;13.00;67.70;;;;;;5072399;28;20031;-60
2022/04/22 05:58:50;;;;;;;8.80;5.68;;;13.00;67.80;;;;;;5090065;28;20476;-60
2022/04/22 06:01:16;;;;;;;9.00;5.45;;;13.00;67.90;;;;;;5088014;28;20039;-60
2022/04/22 06:03:41;;;;;;;6.38;5.38;;;12.90;68.50;;;;;;5070267;28;20047;-59
2022/04/22 06:06:07;;;;;;;10.23;5.80;;;13.00;67.90;;;;;;5079554;28;20245;-60
2022/04/22 06:11:16;;;;;;;10.40;5.75;;;12.90;67.80;;;;;;5089100;28;20073;-60
2022/04/22 06:13:42;;;;;;;8.50;5.32;;;13.00;67.90;;;;;;5070815;28;20114;-59
2022/04/22 06:16:07;;;;;;;10.77;5.57;;;12.90;68.00;;;;;;5079155;28;20122;-60
2022/04/22 06:18:33;;;;;;;6.95;5.60;;;12.90;68.00;;;;;;5071052;28;20612;-60
2022/04/22 06:20:58;;;;;;;10.05;5.30;;;13.00;68.10;;;;;;5089341;28;20096;-60
2022/04/22 06:23:24;;;;;;;11.48;5.75;;;12.90;68.10;;;;;;5087894;28;20028;-59
2022/04/22 06:25:49;;;;;;;6.97;5.63;;;12.90;68.10;;;;;;5088044;28;20047;-60
2022/04/22 06:28:15;;;;;;;8.65;5.57;;;12.90;68.10;;;;;;5067404;28;20031;-59
2022/04/22 06:30:41;;;;;;;6.63;5.32;;;12.90;68.10;;;;;;5080331;28;20032;-59
2022/04/22 06:33:07;;;;;;;7.50;5.80;;;13.10;68.40;;;;;;5087057;28;20048;-60
2022/04/22 06:35:32;;;;;;;8.82;5.70;;;12.90;68.30;;;;;;5059248;28;20037;-60
2022/04/22 06:38:00;;;;;;;8.38;6.18;;;12.90;68.30;;;;;;5057193;28;20553;-60
2022/04/22 06:45:55;;;;;;;7.65;5.35;;;12.90;68.50;;;;;;5076213;28;20034;-60
2022/04/22 06:48:32;;;;;;;7.45;5.60;;;13.00;68.60;;;;;;5050414;28;20044;-60
2022/04/22 06:50:58;;;;;;;10.20;6.15;;;13.00;68.60;;;;;;5045066;28;20037;-60
2022/04/22 06:53:24;;;;;;;6.05;5.40;;;12.90;68.50;;;;;;5054699;28;20051;-60
2022/04/22 06:55:50;;;;;;;6.55;5.57;;;12.90;68.60;;;;;;5076339;28;20067;-60
2022/04/22 06:58:17;;;;;;;7.07;5.53;;;12.90;69.40;;;;;;5076377;28;20395;-59
2022/04/22 07:00:43;;;;;;;9.63;5.75;;;12.90;68.60;;;;;;5061024;28;20025;-60
2022/04/22 07:03:09;;;;;;;6.13;5.43;;;12.90;68.60;;;;;;5066748;28;20032;-60
2022/04/22 07:05:35;;;;;;;7.53;5.68;;;12.90;68.60;;;;;;5077071;28;20063;-59
2022/04/22 07:08:02;;;;;;;6.55;5.88;;;12.90;68.60;;;;;;5074810;28;20044;-60
2022/04/22 07:10:29;;;;;;;7.53;5.68;;;12.90;68.60;;;;;;5060864;28;20050;-60
2022/04/22 07:12:56;;;;;;;6.60;5.90;;;13.00;68.80;;;;;;5047959;28;20055;-60
2022/04/22 07:15:21;;;;;;;6.03;5.35;;;12.70;68.60;;;;;;5059673;28;20032;-59
2022/04/22 07:17:47;;;;;;;9.25;6.18;;;13.00;68.80;;;;;;5077989;28;20039;-60
2022/04/22 07:20:13;;;;;;;7.13;5.75;;;13.00;69.00;;;;;;5057313;28;20127;-60
2022/04/22 07:22:39;;;;;;;5.90;5.40;;;13.00;69.00;;;;;;5076910;28;20025;-59
2022/04/22 07:25:06;;;;;;;6.95;6.18;;;13.00;68.90;;;;;;5055617;28;20407;-60
2022/04/22 07:27:33;;;;;;;7.57;5.88;;;13.00;69.00;;;;;;5064941;28;20024;-60
2022/04/22 07:29:59;;;;;;;8.73;6.57;;;13.00;69.10;;;;;;5077526;28;20102;-59
2022/04/22 07:32:25;;;;;;;7.80;6.95;;;12.90;69.50;;;;;;5074608;28;20051;-59
2022/04/22 07:34:51;;;;;;;9.48;6.57;;;13.00;70.20;;;;;;5077136;28;20152;-60
2022/04/22 07:37:17;;;;;;;8.15;7.35;;;12.90;70.30;;;;;;5058620;28;20139;-60
2022/04/22 07:39:43;;;;;;;7.75;6.95;;;12.80;70.60;;;;;;5075805;28;21326;-59
2022/04/22 07:42:14;;;;;;;8.52;7.70;;;12.80;71.00;;;;;;5065867;28;20093;-60
2022/04/22 07:47:25;;;;;;;8.20;7.25;;;12.80;71.40;;;;;;5063259;28;20101;-59
2022/04/22 07:49:51;;;;;;;8.80;7.35;;;12.70;71.80;;;;;;5046269;28;20025;-60
2022/04/22 07:52:16;;;;;;;10.95;7.63;;;12.70;72.00;;;;;;5064887;28;20178;-60
2022/04/22 07:54:42;;;;;;;10.07;7.47;;;12.60;72.10;;;;;;5084623;28;20032;-59
2022/04/22 07:57:08;;;;;;;8.50;7.05;;;12.70;72.30;;;;;;5087447;28;20035;-59
2022/04/22 07:59:33;;;;;;;14.80;7.32;;;12.70;72.20;;;;;;5040775;28;20071;-60
2022/04/22 08:01:59;;;;;;;10.50;8.15;;;12.70;72.20;;;;;;5065010;28;20053;-61
2022/04/22 08:04:25;;;;;;;8.65;7.75;;;12.70;72.20;;;;;;5077733;28;20023;-60
2022/04/22 08:06:51;;;;;;;10.85;7.47;;;12.60;72.10;;;;;;5054755;28;20016;-60
2022/04/22 08:09:17;;;;;;;12.50;8.27;;;12.70;72.20;;;;;;5074551;28;20027;-60
2022/04/22 08:11:43;;;;;;;14.57;8.32;;;12.70;72.50;;;;;;5059268;28;20399;-60
2022/04/22 08:14:11;;;;;;;10.60;8.32;;;12.60;72.50;;;;;;5056199;28;20101;-60
2022/04/22 08:16:37;;;;;;;8.38;7.57;;;12.60;72.40;;;;;;5079514;28;20043;-60
2022/04/22 08:19:02;;;;;;;10.98;8.18;;;12.60;72.50;;;;;;5082989;28;20853;-60
2022/04/22 08:21:34;;;;;;;11.48;8.40;;;12.60;72.60;;;;;;5080905;28;20104;-59
2022/04/22 08:24:03;;;;;;;10.70;8.40;;;12.70;72.80;;;;;;5073140;28;20032;-63
2022/04/22 08:26:31;;;;;;;18.63;7.90;;;12.60;72.60;;;;;;5057775;28;20020;-60
2022/04/22 08:28:56;;;;;;;26.77;9.50;;;12.60;72.70;;;;;;5065445;28;20034;-59
2022/04/22 08:31:22;;;;;;;13.13;8.32;;;12.70;72.90;;;;;;5072640;28;20052;-60
2022/04/22 08:33:49;;;;;;;14.95;8.27;;;12.60;72.80;;;;;;5078882;28;20024;-60
2022/04/22 08:36:14;;;;;;;18.38;8.57;;;12.70;72.80;;;;;;5073316;28;20043;-60
2022/04/22 08:38:40;;;;;;;15.23;8.13;;;12.70;72.80;;;;;;5064737;28;20063;-60
2022/04/22 08:41:07;;;;;;;15.48;8.43;;;12.70;72.70;;;;;;5061434;28;20396;-60
2022/04/22 08:43:33;;;;;;;16.85;9.05;;;12.70;72.90;;;;;;5061807;28;20032;-60
2022/04/22 08:45:58;;;;;;;25.80;9.80;;;12.70;72.90;;;;;;5060289;28;20243;-60
2022/04/22 08:51:08;;;;;;;14.55;8.70;;;12.70;73.10;;;;;;5058940;28;20047;-60
2022/04/22 08:53:34;;;;;;;25.20;9.30;;;12.70;73.20;;;;;;5081318;28;20031;-60
2022/04/22 08:56:01;;;;;;;27.13;9.63;;;12.70;73.20;;;;;;5063493;28;20373;-60
2022/04/22 08:58:27;;;;;;;11.68;8.40;;;12.70;73.20;;;;;;5062895;28;20336;-60
2022/04/22 09:00:54;;;;;;;15.52;8.73;;;12.70;73.10;;;;;;5074461;28;20042;-61
2022/04/22 09:03:20;;;;;;;21.65;10.02;;;12.70;73.00;;;;;;5067173;28;20712;-60
2022/04/22 09:05:45;;;;;;;25.00;9.30;;;12.70;73.10;;;;;;5047028;28;20083;-60
2022/04/22 09:08:11;;;;;;;18.15;10.13;;;12.80;72.90;;;;;;5080384;28;20119;-60
2022/04/22 09:10:38;;;;;;;22.45;9.60;;;12.80;73.10;;;;;;5055354;28;20123;-61
2022/04/22 09:13:09;;;;;;;39.97;11.88;;;12.80;72.80;;;;;;5072055;28;20163;-60
2022/04/22 09:15:35;;;;;;;21.63;9.90;;;12.90;72.80;;;;;;5068923;28;20025;-60
2022/04/22 09:18:12;;;;;;;28.23;10.63;;;12.90;72.30;;;;;;5077225;28;20094;-60
2022/04/22 09:20:38;;;;;;;34.63;10.13;;;13.00;73.10;;;;;;5062716;28;20016;-60
2022/04/22 09:23:34;;;;;;;32.53;10.85;;;13.00;72.20;;;;;;5064133;28;20365;-60
2022/04/22 09:26:00;;;;;;;20.08;10.82;;;13.10;72.30;;;;;;5059484;28;20376;-60
2022/04/22 09:28:26;;;;;;;28.15;10.85;;;13.10;72.10;;;;;;5052620;28;20113;-60
2022/04/22 09:31:04;;;;;;;24.83;10.25;;;13.10;71.70;;;;;;5064440;28;20036;-59
2022/04/22 09:33:44;;;;;;;32.50;10.52;;;13.20;71.50;;;;;;5060450;28;20036;-61
2022/04/22 09:44:35;;;;;;;35.78;11.20;;;13.40;71.50;;;;;;5058823;28;20074;-60
2022/04/22 09:47:11;;;;;;;41.38;12.05;;;13.40;71.40;;;;;;5061285;28;20115;-61
2022/04/22 09:49:38;;;;;;;32.67;10.73;;;13.40;71.70;;;;;;5079329;28;20466;-61
2022/04/22 09:52:05;;;;;;;42.05;11.27;;;13.40;71.20;;;;;;5073446;28;20210;-59
2022/04/22 09:54:30;;;;;;;46.65;11.50;;;13.50;71.10;;;;;;5059200;28;20044;-60
2022/04/22 09:56:57;;;;;;;38.88;11.48;;;13.50;71.00;;;;;;5081378;28;20116;-60
2022/04/22 09:59:24;;;;;;;34.80;11.50;;;13.60;70.90;;;;;;5061253;28;20024;-60
2022/04/22 10:01:49;;;;;;;35.22;11.95;;;13.60;71.20;;;;;;5067601;28;20038;-60
2022/04/22 10:04:19;;;;;;;40.17;11.38;;;13.60;71.20;;;;;;5082519;28;20924;-59
2022/04/22 10:06:45;;;;;;;63.28;13.27;;;13.70;71.30;;;;;;5047204;28;20039;-60
2022/04/22 10:09:11;;;;;;;51.25;13.27;;;13.80;70.70;;;;;;5076387;28;20024;-60
2022/04/22 10:11:37;;;;;;;41.85;11.73;;;13.80;70.90;;;;;;5058908;28;20070;-60
2022/04/22 10:14:05;;;;;;;48.92;11.88;;;13.80;70.60;;;;;;5059817;28;20120;-60
2022/04/22 10:16:30;;;;;;;35.60;11.35;;;13.80;70.70;;;;;;5061137;28;20040;-62
2022/04/22 10:18:56;;;;;;;72.82;13.60;;;13.90;70.90;;;;;;5062793;28;20033;-60
2022/04/22 10:21:21;;;;;;;41.58;11.40;;;13.90;71.30;;;;;;5045342;28;20025;-59
2022/04/22 10:23:47;;;;;;;53.88;13.57;;;14.00;70.90;;;;;;5047373;28;20099;-59
2022/04/22 10:26:12;;;;;;;54.40;13.88;;;14.00;71.10;;;;;;5035037;28;20033;-60
2022/04/22 10:28:39;;;;;;;55.08;12.98;;;14.00;71.20;;;;;;5059548;28;20031;-60
2022/04/22 10:31:05;;;;;;;41.95;13.45;;;14.10;70.60;;;;;;5042410;28;20086;-60
2022/04/22 10:33:44;;;;;;;58.58;14.27;;;14.10;70.80;;;;;;5058771;28;20535;-60
2022/04/22 10:36:17;;;;;;;52.53;13.73;;;14.20;70.70;;;;;;5068708;28;20020;-60
2022/04/22 10:38:45;;;;;;;57.97;14.73;;;14.20;70.00;;;;;;5064914;28;20032;-60
2022/04/22 10:41:16;;;;;;;52.35;12.50;;;14.20;70.10;;;;;;5068975;28;20040;-60
2022/04/22 10:43:42;;;;;;;47.50;12.85;;;14.30;70.90;;;;;;5072388;28;20051;-59
2022/04/22 10:49:12;;;;;;;45.95;12.95;;;14.40;70.20;;;;;;5060364;28;20055;-60
2022/04/22 10:52:09;;;;;;;47.17;12.60;;;14.40;70.40;;;;;;5064822;28;20092;-60
2022/04/22 10:54:58;;;;;;;53.28;13.85;;;14.50;70.10;;;;;;5065278;28;20044;-59
2022/04/22 10:57:29;;;;;;;48.97;13.52;;;14.60;70.20;;;;;;5068542;28;20055;-60
2022/04/22 11:00:03;;;;;;;46.00;12.70;;;14.60;70.10;;;;;;5069604;28;20065;-60
2022/04/22 11:02:30;;;;;;;41.63;11.70;;;14.70;69.80;;;;;;5074899;28;20176;-59
2022/04/22 11:05:20;;;;;;;37.38;12.27;;;14.70;69.90;;;;;;5042637;28;20055;-60
2022/04/22 11:07:58;;;;;;;30.20;11.88;;;14.80;69.80;;;;;;5071539;28;20025;-63
2022/04/22 11:10:25;;;;;;;45.55;12.75;;;14.80;69.70;;;;;;5074496;28;20024;-60
2022/04/22 11:12:54;;;;;;;32.10;11.32;;;14.90;69.60;;;;;;5059642;28;20035;-60
2022/04/22 11:15:42;;;;;;;49.08;13.10;;;14.90;69.60;;;;;;5057029;28;20040;-60
2022/04/22 11:18:10;;;;;;;33.70;10.63;;;15.00;69.80;;;;;;5065022;28;20040;-59
2022/04/22 11:20:37;;;;;;;36.28;11.88;;;15.10;69.60;;;;;;5043893;28;20557;-60
2022/04/22 11:23:05;;;;;;;40.15;11.57;;;15.10;69.50;;;;;;5041328;28;20055;-60
2022/04/22 11:25:30;;;;;;;29.55;12.18;;;15.20;69.40;;;;;;5059307;28;20778;-60
2022/04/22 11:27:56;;;;;;;31.30;11.73;;;15.30;69.40;;;;;;5078101;28;20093;-61
2022/04/22 11:30:25;;;;;;;28.95;11.85;;;15.30;69.30;;;;;;5040575;28;20094;-60
2022/04/22 11:32:52;;;;;;;29.80;12.45;;;15.40;69.30;;;;;;5054429;28;20886;-60
2022/04/22 11:35:25;;;;;;;39.92;12.25;;;15.40;69.20;;;;;;5054232;28;20032;-61
2022/04/22 11:37:58;;;;;;;38.65;10.93;;;15.50;69.10;;;;;;5044219;28;20089;-60
2022/04/22 11:40:23;;;;;;;44.40;12.15;;;15.60;68.90;;;;;;5065108;28;20131;-60
2022/04/22 11:42:50;;;;;;;32.20;11.20;;;15.70;68.70;;;;;;5044907;28;20123;-60
2022/04/22 11:45:16;;;;;;;39.03;11.13;;;15.70;68.40;;;;;;5069924;28;20094;-60
2022/04/22 11:47:42;;;;;;;30.48;11.20;;;15.90;68.20;;;;;;5058579;28;20051;-60
2022/04/22 11:50:08;;;;;;;23.63;11.32;;;16.00;68.10;;;;;;5044028;28;20655;-60
2022/04/22 11:52:34;;;;;;;29.73;12.45;;;16.00;68.00;;;;;;5057423;28;20047;-60
2022/04/22 11:55:01;;;;;;;36.97;12.02;;;16.10;67.80;;;;;;5078128;28;20036;-60
2022/04/22 11:57:27;;;;;;;33.15;11.73;;;16.10;67.70;;;;;;5035181;28;20024;-60
2022/04/22 12:05:34;;;;;;;39.42;11.15;;;16.40;67.60;;;;;;5060838;28;20467;-61
2022/04/22 12:08:07;;;;;;;35.88;12.20;;;16.50;67.30;;;;;;5055233;28;20024;-60
2022/04/22 12:10:33;;;;;;;35.25;11.43;;;16.60;67.20;;;;;;5056250;28;20039;-60
2022/04/22 12:13:03;;;;;;;27.30;9.82;;;16.60;66.90;;;;;;5045415;28;20044;-59
2022/04/22 12:15:29;;;;;;;26.90;11.93;;;16.70;66.80;;;;;;5072709;28;20654;-60
2022/04/22 12:17:54;;;;;;;36.03;11.23;;;16.80;66.60;;;;;;5054446;28;20105;-61
2022/04/22 12:20:20;;;;;;;31.38;11.10;;;16.90;66.40;;;;;;5056846;28;20028;-60
2022/04/22 12:22:49;;;;;;;21.67;10.05;;;16.90;66.20;;;;;;5082193;28;20122;-60
2022/04/22 12:25:16;;;;;;;23.05;10.63;;;17.00;66.10;;;;;;5070313;28;20157;-60
2022/04/22 12:27:42;;;;;;;21.67;10.43;;;17.10;65.90;;;;;;5056643;28;20097;-61
2022/04/22 12:30:11;;;;;;;32.03;11.00;;;17.20;65.90;;;;;;5056597;28;20100;-60
2022/04/22 12:32:41;;;;;;;33.28;11.38;;;17.20;65.70;;;;;;5035847;28;20055;-60
2022/04/22 12:35:16;;;;;;;31.42;11.27;;;17.20;65.70;;;;;;5058943;28;20096;-61
2022/04/22 12:37:46;;;;;;;35.50;12.18;;;17.30;65.60;;;;;;5066752;28;20031;-60
2022/04/22 12:40:12;;;;;;;63.08;12.50;;;17.40;65.30;;;;;;5056196;28;20036;-62
2022/04/22 12:42:39;;;;;;;54.30;12.65;;;17.40;65.10;;;;;;5047854;28;20107;-60
2022/04/22 12:53:34;;;;;;;51.90;13.98;;;17.70;64.10;;;;;;5060072;28;20300;-60
2022/04/22 12:56:03;;;;;;;44.35;12.57;;;17.70;63.80;;;;;;5067373;28;20115;-60
2022/04/22 12:58:29;;;;;;;62.70;14.15;;;17.80;63.80;;;;;;5070904;28;20668;-60
2022/04/22 13:00:55;;;;;;;66.50;14.23;;;17.90;63.60;;;;;;5079521;28;20052;-61
2022/04/22 13:03:21;;;;;;;63.22;13.35;;;17.90;63.50;;;;;;5063198;28;20032;-60
2022/04/22 13:05:50;;;;;;;43.25;12.65;;;18.00;63.50;;;;;;5028511;28;20036;-60
2022/04/22 13:08:16;;;;;;;50.20;12.32;;;18.00;63.90;;;;;;5060542;28;20036;-61
2022/04/22 13:10:42;;;;;;;42.90;11.82;;;18.10;63.20;;;;;;5053543;28;20488;-60
2022/04/22 13:13:08;;;;;;;47.17;12.75;;;18.20;63.10;;;;;;5039109;28;20028;-60
2022/04/22 13:15:33;;;;;;;70.35;14.30;;;18.00;62.70;;;;;;5049007;28;20063;-60
2022/04/22 13:17:59;;;;;;;46.78;12.77;;;18.30;62.50;;;;;;5042657;28;20042;-60
2022/04/22 13:20:24;;;;;;;43.22;12.48;;;18.30;62.40;;;;;;5035682;28;20028;-61
2022/04/22 13:22:50;;;;;;;35.45;12.02;;;18.40;62.30;;;;;;5071199;28;20534;-60
2022/04/22 13:25:17;;;;;;;43.78;11.13;;;18.50;61.90;;;;;;5052903;28;20123;-61
2022/04/22 13:27:44;;;;;;;54.17;12.85;;;18.60;61.60;;;;;;5060545;28;20021;-61
2022/04/22 13:30:11;;;;;;;52.88;12.95;;;18.60;61.60;;;;;;5037923;28;20032;-61
2022/04/22 13:32:37;;;;;;;68.75;11.95;;;18.70;61.40;;;;;;5076127;28;20130;-61
2022/04/22 13:35:04;;;;;;;99.65;16.27;;;18.70;61.10;;;;;;5061412;28;20029;-60
2022/04/22 13:37:33;;;;;;;74.35;13.27;;;18.80;61.10;;;;;;5066820;28;20029;-63
2022/04/22 13:39:59;;;;;;;66.97;12.90;;;18.80;61.00;;;;;;5060538;28;20157;-61
2022/04/22 13:42:24;;;;;;;51.40;11.45;;;18.90;60.80;;;;;;5059989;28;20514;-61
2022/04/22 13:53:04;;;;;;;66.30;11.98;;;19.20;60.80;;;;;;5073418;28;20054;-60